sensor_id;sensor_type;location;lat;lon;timestamp;P1;durP1;ratioP1;P2;durP2;ratioP2
3843;SDS011;1937;51.444;6.484;2023-02-11T00:01:33;41.27;;;20.00;;
3843;SDS011;1937;51.444;6.484;2023-02-11T00:04:03;41.90;;;18.07;;
3843;SDS011;1937;51.444;6.484;2023-02-11T00:06:35;33.93;;;19.53;;
3843;SDS011;1937;51.444;6.484;2023-02-11T00:09:04;40.60;;;18.80;;
3843;SDS011;1937;51.444;6.484;2023-02-11T00:11:35;40.90;;;19.33;;
3843;SDS011;1937;51.444;6.484;2023-02-11T00:14:04;38.87;;;18.30;;
3843;SDS011;1937;51.444;6.484;2023-02-11T00:16:35;44.00;;;19.30;;
3843;SDS011;1937;51.444;6.484;2023-02-11T00:19:05;37.17;;;19.57;;
3843;SDS011;1937;51.444;6.484;2023-02-11T00:21:37;39.23;;;19.87;;
3843;SDS011;1937;51.444;6.484;2023-02-11T00:24:06;44.77;;;18.67;;
3843;SDS011;1937;51.444;6.484;2023-02-11T00:26:35;37.50;;;19.50;;
3843;SDS011;1937;51.444;6.484;2023-02-11T00:29:04;36.00;;;18.10;;
3843;SDS011;1937;51.444;6.484;2023-02-11T00:31:32;36.80;;;17.77;;
3843;SDS011;1937;51.444;6.484;2023-02-11T00:34:01;35.37;;;17.83;;
3843;SDS011;1937;51.444;6.484;2023-02-11T00:36:29;37.63;;;16.23;;
3843;SDS011;1937;51.444;6.484;2023-02-11T00:38:57;40.70;;;19.17;;
3843;SDS011;1937;51.444;6.484;2023-02-11T00:41:25;39.83;;;17.10;;
3843;SDS011;1937;51.444;6.484;2023-02-11T00:43:55;35.03;;;16.47;;
3843;SDS011;1937;51.444;6.484;2023-02-11T00:46:24;33.67;;;17.60;;
3843;SDS011;1937;51.444;6.484;2023-02-11T00:48:52;33.50;;;18.30;;
3843;SDS011;1937;51.444;6.484;2023-02-11T00:51:21;33.73;;;16.60;;
3843;SDS011;1937;51.444;6.484;2023-02-11T00:53:51;31.53;;;18.20;;
3843;SDS011;1937;51.444;6.484;2023-02-11T00:56:20;36.80;;;16.93;;
3843;SDS011;1937;51.444;6.484;2023-02-11T00:58:48;31.03;;;17.30;;
3843;SDS011;1937;51.444;6.484;2023-02-11T01:01:18;33.27;;;18.30;;
3843;SDS011;1937;51.444;6.484;2023-02-11T01:03:47;40.27;;;18.27;;
3843;SDS011;1937;51.444;6.484;2023-02-11T01:06:16;36.07;;;17.47;;
3843;SDS011;1937;51.444;6.484;2023-02-11T01:08:45;35.20;;;16.53;;
3843;SDS011;1937;51.444;6.484;2023-02-11T01:11:14;35.60;;;17.17;;
3843;SDS011;1937;51.444;6.484;2023-02-11T01:13:45;33.63;;;17.00;;
3843;SDS011;1937;51.444;6.484;2023-02-11T01:16:14;36.87;;;18.40;;
3843;SDS011;1937;51.444;6.484;2023-02-11T01:18:45;41.23;;;18.80;;
3843;SDS011;1937;51.444;6.484;2023-02-11T01:21:14;27.10;;;15.67;;
3843;SDS011;1937;51.444;6.484;2023-02-11T01:23:43;36.93;;;15.47;;
3843;SDS011;1937;51.444;6.484;2023-02-11T01:26:12;37.07;;;15.97;;
3843;SDS011;1937;51.444;6.484;2023-02-11T01:28:40;26.57;;;15.60;;
3843;SDS011;1937;51.444;6.484;2023-02-11T01:31:09;36.37;;;16.17;;
3843;SDS011;1937;51.444;6.484;2023-02-11T01:33:37;34.20;;;14.87;;
3843;SDS011;1937;51.444;6.484;2023-02-11T01:36:10;31.53;;;16.17;;
3843;SDS011;1937;51.444;6.484;2023-02-11T01:38:38;34.50;;;15.50;;
3843;SDS011;1937;51.444;6.484;2023-02-11T01:41:09;26.70;;;15.73;;
3843;SDS011;1937;51.444;6.484;2023-02-11T01:43:42;29.80;;;16.47;;
3843;SDS011;1937;51.444;6.484;2023-02-11T01:46:28;27.90;;;14.10;;
3843;SDS011;1937;51.444;6.484;2023-02-11T01:48:58;24.80;;;13.83;;
3843;SDS011;1937;51.444;6.484;2023-02-11T01:51:29;34.23;;;14.30;;
3843;SDS011;1937;51.444;6.484;2023-02-11T01:53:59;25.10;;;14.40;;
3843;SDS011;1937;51.444;6.484;2023-02-11T01:56:46;28.03;;;14.83;;
3843;SDS011;1937;51.444;6.484;2023-02-11T01:59:37;34.77;;;16.20;;
3843;SDS011;1937;51.444;6.484;2023-02-11T02:02:10;31.60;;;14.03;;
3843;SDS011;1937;51.444;6.484;2023-02-11T02:04:43;28.17;;;13.13;;
3843;SDS011;1937;51.444;6.484;2023-02-11T02:07:21;35.77;;;15.00;;
3843;SDS011;1937;51.444;6.484;2023-02-11T02:09:55;26.87;;;14.07;;
3843;SDS011;1937;51.444;6.484;2023-02-11T02:12:28;29.57;;;15.13;;
3843;SDS011;1937;51.444;6.484;2023-02-11T02:18:00;31.40;;;14.43;;
3843;SDS011;1937;51.444;6.484;2023-02-11T02:26:59;23.87;;;13.33;;
3843;SDS011;1937;51.444;6.484;2023-02-11T02:29:53;24.00;;;14.60;;
3843;SDS011;1937;51.444;6.484;2023-02-11T02:35:31;25.50;;;13.57;;
3843;SDS011;1937;51.444;6.484;2023-02-11T02:38:05;25.17;;;11.80;;
3843;SDS011;1937;51.444;6.484;2023-02-11T02:40:35;24.10;;;12.80;;
3843;SDS011;1937;51.444;6.484;2023-02-11T02:43:06;25.87;;;12.40;;
3843;SDS011;1937;51.444;6.484;2023-02-11T02:45:35;24.77;;;12.00;;
3843;SDS011;1937;51.444;6.484;2023-02-11T02:48:02;23.93;;;11.10;;
3843;SDS011;1937;51.444;6.484;2023-02-11T02:50:30;24.80;;;11.60;;
3843;SDS011;1937;51.444;6.484;2023-02-11T02:53:04;25.37;;;11.97;;
3843;SDS011;1937;51.444;6.484;2023-02-11T02:55:41;19.23;;;12.07;;
3843;SDS011;1937;51.444;6.484;2023-02-11T02:58:21;20.40;;;12.27;;
3843;SDS011;1937;51.444;6.484;2023-02-11T03:01:21;20.00;;;12.50;;
3843;SDS011;1937;51.444;6.484;2023-02-11T03:03:59;23.53;;;10.93;;
3843;SDS011;1937;51.444;6.484;2023-02-11T03:06:35;28.33;;;12.60;;
3843;SDS011;1937;51.444;6.484;2023-02-11T03:09:12;23.40;;;11.80;;
3843;SDS011;1937;51.444;6.484;2023-02-11T03:11:42;23.63;;;12.73;;
3843;SDS011;1937;51.444;6.484;2023-02-11T03:14:09;23.13;;;12.83;;
3843;SDS011;1937;51.444;6.484;2023-02-11T03:16:40;21.40;;;11.80;;
3843;SDS011;1937;51.444;6.484;2023-02-11T03:19:11;23.37;;;12.37;;
3843;SDS011;1937;51.444;6.484;2023-02-11T03:21:41;22.90;;;11.83;;
3843;SDS011;1937;51.444;6.484;2023-02-11T03:24:11;23.97;;;12.47;;
3843;SDS011;1937;51.444;6.484;2023-02-11T03:26:42;25.50;;;12.50;;
3843;SDS011;1937;51.444;6.484;2023-02-11T03:29:13;25.40;;;11.80;;
3843;SDS011;1937;51.444;6.484;2023-02-11T03:31:45;18.60;;;11.63;;
3843;SDS011;1937;51.444;6.484;2023-02-11T03:34:21;21.63;;;12.53;;
3843;SDS011;1937;51.444;6.484;2023-02-11T03:36:58;22.00;;;11.30;;
3843;SDS011;1937;51.444;6.484;2023-02-11T03:39:28;22.60;;;12.70;;
3843;SDS011;1937;51.444;6.484;2023-02-11T03:41:58;18.53;;;10.87;;
3843;SDS011;1937;51.444;6.484;2023-02-11T03:44:27;23.37;;;12.93;;
3843;SDS011;1937;51.444;6.484;2023-02-11T03:47:06;21.07;;;11.33;;
3843;SDS011;1937;51.444;6.484;2023-02-11T03:49:35;19.03;;;10.90;;
3843;SDS011;1937;51.444;6.484;2023-02-11T03:52:06;25.27;;;9.67;;
3843;SDS011;1937;51.444;6.484;2023-02-11T03:54:36;21.20;;;11.33;;
3843;SDS011;1937;51.444;6.484;2023-02-11T03:57:06;23.77;;;11.10;;
3843;SDS011;1937;51.444;6.484;2023-02-11T03:59:47;23.80;;;10.67;;
3843;SDS011;1937;51.444;6.484;2023-02-11T04:02:15;27.37;;;11.40;;
3843;SDS011;1937;51.444;6.484;2023-02-11T04:04:42;20.77;;;11.87;;
3843;SDS011;1937;51.444;6.484;2023-02-11T04:07:11;20.03;;;11.50;;
3843;SDS011;1937;51.444;6.484;2023-02-11T04:09:37;22.63;;;9.80;;
3843;SDS011;1937;51.444;6.484;2023-02-11T04:12:04;22.93;;;10.27;;
3843;SDS011;1937;51.444;6.484;2023-02-11T04:14:31;24.40;;;11.37;;
3843;SDS011;1937;51.444;6.484;2023-02-11T04:16:58;20.53;;;10.83;;
3843;SDS011;1937;51.444;6.484;2023-02-11T04:19:24;17.00;;;11.03;;
3843;SDS011;1937;51.444;6.484;2023-02-11T04:21:51;21.70;;;11.67;;
3843;SDS011;1937;51.444;6.484;2023-02-11T04:24:19;29.53;;;12.20;;
3843;SDS011;1937;51.444;6.484;2023-02-11T04:26:45;23.23;;;13.37;;
3843;SDS011;1937;51.444;6.484;2023-02-11T04:29:12;26.73;;;13.07;;
3843;SDS011;1937;51.444;6.484;2023-02-11T04:31:38;26.90;;;12.50;;
3843;SDS011;1937;51.444;6.484;2023-02-11T04:34:05;23.73;;;13.27;;
3843;SDS011;1937;51.444;6.484;2023-02-11T04:36:31;22.03;;;13.17;;
3843;SDS011;1937;51.444;6.484;2023-02-11T04:38:58;25.20;;;13.50;;
3843;SDS011;1937;51.444;6.484;2023-02-11T04:41:26;24.37;;;13.57;;
3843;SDS011;1937;51.444;6.484;2023-02-11T04:43:52;29.50;;;13.77;;
3843;SDS011;1937;51.444;6.484;2023-02-11T04:46:19;33.23;;;12.83;;
3843;SDS011;1937;51.444;6.484;2023-02-11T04:48:45;27.53;;;13.47;;
3843;SDS011;1937;51.444;6.484;2023-02-11T04:51:12;26.20;;;13.40;;
3843;SDS011;1937;51.444;6.484;2023-02-11T04:53:39;26.90;;;13.37;;
3843;SDS011;1937;51.444;6.484;2023-02-11T04:56:06;29.13;;;14.23;;
3843;SDS011;1937;51.444;6.484;2023-02-11T04:58:34;34.97;;;13.77;;
3843;SDS011;1937;51.444;6.484;2023-02-11T05:01:04;31.10;;;15.80;;
3843;SDS011;1937;51.444;6.484;2023-02-11T05:03:31;35.97;;;15.10;;
3843;SDS011;1937;51.444;6.484;2023-02-11T05:05:57;33.80;;;16.00;;
3843;SDS011;1937;51.444;6.484;2023-02-11T05:08:24;29.53;;;15.53;;
3843;SDS011;1937;51.444;6.484;2023-02-11T05:10:50;32.43;;;16.20;;
3843;SDS011;1937;51.444;6.484;2023-02-11T05:13:17;39.17;;;16.63;;
3843;SDS011;1937;51.444;6.484;2023-02-11T05:15:45;36.53;;;16.70;;
3843;SDS011;1937;51.444;6.484;2023-02-11T05:18:12;35.37;;;16.67;;
3843;SDS011;1937;51.444;6.484;2023-02-11T05:20:39;34.70;;;16.50;;
3843;SDS011;1937;51.444;6.484;2023-02-11T05:23:06;31.67;;;17.17;;
3843;SDS011;1937;51.444;6.484;2023-02-11T05:25:33;30.27;;;17.73;;
3843;SDS011;1937;51.444;6.484;2023-02-11T05:27:59;41.20;;;18.83;;
3843;SDS011;1937;51.444;6.484;2023-02-11T05:30:26;30.47;;;17.30;;
3843;SDS011;1937;51.444;6.484;2023-02-11T05:32:54;42.73;;;17.80;;
3843;SDS011;1937;51.444;6.484;2023-02-11T05:35:21;35.07;;;17.80;;
3843;SDS011;1937;51.444;6.484;2023-02-11T05:37:48;28.33;;;16.00;;
3843;SDS011;1937;51.444;6.484;2023-02-11T05:40:15;35.57;;;18.60;;
3843;SDS011;1937;51.444;6.484;2023-02-11T05:42:42;25.67;;;16.70;;
3843;SDS011;1937;51.444;6.484;2023-02-11T05:45:08;39.10;;;17.77;;
3843;SDS011;1937;51.444;6.484;2023-02-11T05:47:35;38.10;;;17.03;;
3843;SDS011;1937;51.444;6.484;2023-02-11T05:50:03;34.23;;;17.00;;
3843;SDS011;1937;51.444;6.484;2023-02-11T05:52:30;42.47;;;16.10;;
3843;SDS011;1937;51.444;6.484;2023-02-11T05:54:57;41.40;;;16.93;;
3843;SDS011;1937;51.444;6.484;2023-02-11T05:57:23;40.60;;;16.30;;
3843;SDS011;1937;51.444;6.484;2023-02-11T05:59:50;29.73;;;14.37;;
3843;SDS011;1937;51.444;6.484;2023-02-11T06:02:16;33.40;;;14.43;;
3843;SDS011;1937;51.444;6.484;2023-02-11T06:04:43;37.00;;;17.50;;
3843;SDS011;1937;51.444;6.484;2023-02-11T06:07:11;30.57;;;15.33;;
3843;SDS011;1937;51.444;6.484;2023-02-11T06:09:37;27.60;;;15.00;;
3843;SDS011;1937;51.444;6.484;2023-02-11T06:12:04;43.00;;;17.50;;
3843;SDS011;1937;51.444;6.484;2023-02-11T06:14:31;31.70;;;15.50;;
3843;SDS011;1937;51.444;6.484;2023-02-11T06:16:58;34.63;;;15.67;;
3843;SDS011;1937;51.444;6.484;2023-02-11T06:19:24;35.40;;;15.60;;
3843;SDS011;1937;51.444;6.484;2023-02-11T06:21:51;34.00;;;15.10;;
3843;SDS011;1937;51.444;6.484;2023-02-11T06:24:19;38.93;;;16.40;;
3843;SDS011;1937;51.444;6.484;2023-02-11T06:26:45;34.93;;;15.00;;
3843;SDS011;1937;51.444;6.484;2023-02-11T06:29:12;33.00;;;15.50;;
3843;SDS011;1937;51.444;6.484;2023-02-11T06:31:38;34.03;;;15.30;;
3843;SDS011;1937;51.444;6.484;2023-02-11T06:34:05;43.57;;;15.40;;
3843;SDS011;1937;51.444;6.484;2023-02-11T06:36:32;45.17;;;15.47;;
3843;SDS011;1937;51.444;6.484;2023-02-11T06:38:59;41.60;;;15.20;;
3843;SDS011;1937;51.444;6.484;2023-02-11T06:41:27;34.90;;;16.60;;
3843;SDS011;1937;51.444;6.484;2023-02-11T06:43:53;37.50;;;15.57;;
3843;SDS011;1937;51.444;6.484;2023-02-11T06:46:20;32.00;;;15.10;;
3843;SDS011;1937;51.444;6.484;2023-02-11T06:48:47;34.67;;;15.73;;
3843;SDS011;1937;51.444;6.484;2023-02-11T06:51:14;40.50;;;16.17;;
3843;SDS011;1937;51.444;6.484;2023-02-11T06:53:42;28.90;;;14.27;;
3843;SDS011;1937;51.444;6.484;2023-02-11T06:56:11;37.37;;;15.87;;
3843;SDS011;1937;51.444;6.484;2023-02-11T06:58:40;35.63;;;15.07;;
3843;SDS011;1937;51.444;6.484;2023-02-11T07:01:07;45.53;;;15.90;;
3843;SDS011;1937;51.444;6.484;2023-02-11T07:03:36;37.70;;;16.20;;
3843;SDS011;1937;51.444;6.484;2023-02-11T07:06:05;33.40;;;16.60;;
3843;SDS011;1937;51.444;6.484;2023-02-11T07:08:36;31.00;;;15.80;;
3843;SDS011;1937;51.444;6.484;2023-02-11T07:11:07;37.33;;;15.37;;
3843;SDS011;1937;51.444;6.484;2023-02-11T07:13:34;35.03;;;15.60;;
3843;SDS011;1937;51.444;6.484;2023-02-11T07:16:04;42.07;;;16.00;;
3843;SDS011;1937;51.444;6.484;2023-02-11T07:18:31;33.17;;;13.70;;
3843;SDS011;1937;51.444;6.484;2023-02-11T07:20:57;32.00;;;16.53;;
3843;SDS011;1937;51.444;6.484;2023-02-11T07:23:24;33.70;;;15.20;;
3843;SDS011;1937;51.444;6.484;2023-02-11T07:25:51;32.70;;;14.47;;
3843;SDS011;1937;51.444;6.484;2023-02-11T07:28:17;38.70;;;15.97;;
3843;SDS011;1937;51.444;6.484;2023-02-11T07:30:44;34.23;;;15.60;;
3843;SDS011;1937;51.444;6.484;2023-02-11T07:33:12;30.30;;;14.10;;
3843;SDS011;1937;51.444;6.484;2023-02-11T07:35:38;34.77;;;16.87;;
3843;SDS011;1937;51.444;6.484;2023-02-11T07:38:05;31.40;;;14.93;;
3843;SDS011;1937;51.444;6.484;2023-02-11T07:40:31;39.43;;;16.40;;
3843;SDS011;1937;51.444;6.484;2023-02-11T07:42:59;37.20;;;17.17;;
3843;SDS011;1937;51.444;6.484;2023-02-11T07:45:25;34.97;;;15.50;;
3843;SDS011;1937;51.444;6.484;2023-02-11T07:47:52;37.70;;;16.10;;
3843;SDS011;1937;51.444;6.484;2023-02-11T07:50:20;39.93;;;14.23;;
3843;SDS011;1937;51.444;6.484;2023-02-11T07:52:46;33.73;;;16.37;;
3843;SDS011;1937;51.444;6.484;2023-02-11T07:55:13;28.93;;;14.60;;
3843;SDS011;1937;51.444;6.484;2023-02-11T07:57:40;32.63;;;15.93;;
3843;SDS011;1937;51.444;6.484;2023-02-11T08:00:07;30.30;;;15.13;;
3843;SDS011;1937;51.444;6.484;2023-02-11T08:02:34;38.47;;;16.20;;
3843;SDS011;1937;51.444;6.484;2023-02-11T08:05:00;39.60;;;16.03;;
3843;SDS011;1937;51.444;6.484;2023-02-11T08:07:28;32.50;;;16.20;;
3843;SDS011;1937;51.444;6.484;2023-02-11T08:09:55;35.20;;;16.47;;
3843;SDS011;1937;51.444;6.484;2023-02-11T08:12:21;31.10;;;14.70;;
3843;SDS011;1937;51.444;6.484;2023-02-11T08:14:48;36.57;;;15.77;;
3843;SDS011;1937;51.444;6.484;2023-02-11T08:17:15;38.40;;;15.90;;
3843;SDS011;1937;51.444;6.484;2023-02-11T08:19:41;33.87;;;15.43;;
3843;SDS011;1937;51.444;6.484;2023-02-11T08:22:08;37.93;;;16.27;;
3843;SDS011;1937;51.444;6.484;2023-02-11T08:24:36;36.00;;;15.47;;
3843;SDS011;1937;51.444;6.484;2023-02-11T08:27:03;39.57;;;16.53;;
3843;SDS011;1937;51.444;6.484;2023-02-11T08:29:29;38.30;;;15.47;;
3843;SDS011;1937;51.444;6.484;2023-02-11T08:31:56;34.87;;;15.20;;
3843;SDS011;1937;51.444;6.484;2023-02-11T08:34:22;43.67;;;18.07;;
3843;SDS011;1937;51.444;6.484;2023-02-11T08:36:49;39.73;;;17.90;;
3843;SDS011;1937;51.444;6.484;2023-02-11T08:39:16;48.40;;;17.97;;
3843;SDS011;1937;51.444;6.484;2023-02-11T08:41:45;49.83;;;20.97;;
3843;SDS011;1937;51.444;6.484;2023-02-11T08:44:13;37.90;;;18.20;;
3843;SDS011;1937;51.444;6.484;2023-02-11T08:46:40;45.57;;;18.67;;
3843;SDS011;1937;51.444;6.484;2023-02-11T08:49:06;42.43;;;20.00;;
3843;SDS011;1937;51.444;6.484;2023-02-11T08:51:33;50.43;;;19.03;;
3843;SDS011;1937;51.444;6.484;2023-02-11T08:53:59;42.03;;;19.70;;
3843;SDS011;1937;51.444;6.484;2023-02-11T08:56:26;45.90;;;20.30;;
3843;SDS011;1937;51.444;6.484;2023-02-11T08:58:56;42.90;;;20.23;;
3843;SDS011;1937;51.444;6.484;2023-02-11T09:01:23;41.03;;;19.03;;
3843;SDS011;1937;51.444;6.484;2023-02-11T09:03:52;39.43;;;20.10;;
3843;SDS011;1937;51.444;6.484;2023-02-11T09:06:19;45.50;;;21.37;;
3843;SDS011;1937;51.444;6.484;2023-02-11T09:08:47;51.07;;;22.73;;
3843;SDS011;1937;51.444;6.484;2023-02-11T09:11:16;52.00;;;19.33;;
3843;SDS011;1937;51.444;6.484;2023-02-11T09:13:43;50.77;;;21.00;;
3843;SDS011;1937;51.444;6.484;2023-02-11T09:16:16;45.67;;;18.43;;
3843;SDS011;1937;51.444;6.484;2023-02-11T09:18:45;47.27;;;19.00;;
3843;SDS011;1937;51.444;6.484;2023-02-11T09:21:12;40.27;;;19.93;;
3843;SDS011;1937;51.444;6.484;2023-02-11T09:23:40;54.83;;;21.83;;
3843;SDS011;1937;51.444;6.484;2023-02-11T09:26:09;43.83;;;22.57;;
3843;SDS011;1937;51.444;6.484;2023-02-11T09:28:39;53.63;;;23.60;;
3843;SDS011;1937;51.444;6.484;2023-02-11T09:31:06;52.67;;;20.93;;
3843;SDS011;1937;51.444;6.484;2023-02-11T09:33:35;54.63;;;22.83;;
3843;SDS011;1937;51.444;6.484;2023-02-11T09:36:03;51.43;;;21.90;;
3843;SDS011;1937;51.444;6.484;2023-02-11T09:38:31;44.37;;;21.47;;
3843;SDS011;1937;51.444;6.484;2023-02-11T09:40:58;48.53;;;23.17;;
3843;SDS011;1937;51.444;6.484;2023-02-11T09:43:29;53.00;;;22.60;;
3843;SDS011;1937;51.444;6.484;2023-02-11T09:45:58;80.27;;;30.63;;
3843;SDS011;1937;51.444;6.484;2023-02-11T09:48:25;92.17;;;31.57;;
3843;SDS011;1937;51.444;6.484;2023-02-11T09:50:54;64.43;;;23.80;;
3843;SDS011;1937;51.444;6.484;2023-02-11T09:53:24;56.70;;;23.37;;
3843;SDS011;1937;51.444;6.484;2023-02-11T09:55:53;49.67;;;21.37;;
3843;SDS011;1937;51.444;6.484;2023-02-11T09:58:23;49.57;;;21.60;;
3843;SDS011;1937;51.444;6.484;2023-02-11T10:00:53;56.13;;;29.07;;
3843;SDS011;1937;51.444;6.484;2023-02-11T10:06:37;54.33;;;21.17;;
3843;SDS011;1937;51.444;6.484;2023-02-11T10:09:10;57.13;;;25.60;;
3843;SDS011;1937;51.444;6.484;2023-02-11T10:11:56;51.70;;;22.50;;
3843;SDS011;1937;51.444;6.484;2023-02-11T10:14:54;55.57;;;23.73;;
3843;SDS011;1937;51.444;6.484;2023-02-11T10:17:34;47.53;;;20.13;;
3843;SDS011;1937;51.444;6.484;2023-02-11T10:20:11;56.37;;;24.13;;
3843;SDS011;1937;51.444;6.484;2023-02-11T10:22:46;53.13;;;22.90;;
3843;SDS011;1937;51.444;6.484;2023-02-11T10:25:20;54.80;;;24.67;;
3843;SDS011;1937;51.444;6.484;2023-02-11T10:27:48;60.57;;;23.50;;
3843;SDS011;1937;51.444;6.484;2023-02-11T10:30:21;67.73;;;25.50;;
3843;SDS011;1937;51.444;6.484;2023-02-11T10:32:53;57.80;;;23.20;;
3843;SDS011;1937;51.444;6.484;2023-02-11T10:35:25;55.73;;;25.00;;
3843;SDS011;1937;51.444;6.484;2023-02-11T10:37:54;56.70;;;26.00;;
3843;SDS011;1937;51.444;6.484;2023-02-11T10:40:21;66.97;;;26.60;;
3843;SDS011;1937;51.444;6.484;2023-02-11T10:42:50;67.47;;;28.17;;
3843;SDS011;1937;51.444;6.484;2023-02-11T10:45:20;63.50;;;26.70;;
3843;SDS011;1937;51.444;6.484;2023-02-11T10:47:50;65.83;;;28.87;;
3843;SDS011;1937;51.444;6.484;2023-02-11T10:50:18;67.63;;;29.50;;
3843;SDS011;1937;51.444;6.484;2023-02-11T10:52:47;64.73;;;26.43;;
3843;SDS011;1937;51.444;6.484;2023-02-11T10:55:15;77.87;;;32.97;;
3843;SDS011;1937;51.444;6.484;2023-02-11T10:57:49;76.63;;;29.50;;
3843;SDS011;1937;51.444;6.484;2023-02-11T11:00:20;71.13;;;29.50;;
3843;SDS011;1937;51.444;6.484;2023-02-11T11:02:53;70.10;;;28.50;;
3843;SDS011;1937;51.444;6.484;2023-02-11T11:05:22;62.40;;;27.40;;
3843;SDS011;1937;51.444;6.484;2023-02-11T11:07:55;62.37;;;25.83;;
3843;SDS011;1937;51.444;6.484;2023-02-11T11:10:30;70.50;;;27.70;;
3843;SDS011;1937;51.444;6.484;2023-02-11T11:13:11;67.43;;;28.70;;
3843;SDS011;1937;51.444;6.484;2023-02-11T11:15:51;58.47;;;26.97;;
3843;SDS011;1937;51.444;6.484;2023-02-11T11:18:33;64.60;;;27.07;;
3843;SDS011;1937;51.444;6.484;2023-02-11T11:21:01;62.47;;;26.93;;
3843;SDS011;1937;51.444;6.484;2023-02-11T11:23:29;76.17;;;27.80;;
3843;SDS011;1937;51.444;6.484;2023-02-11T11:26:03;71.07;;;27.93;;
3843;SDS011;1937;51.444;6.484;2023-02-11T11:28:36;65.67;;;28.93;;
3843;SDS011;1937;51.444;6.484;2023-02-11T11:31:11;76.57;;;26.67;;
3843;SDS011;1937;51.444;6.484;2023-02-11T11:33:40;61.27;;;28.70;;
3843;SDS011;1937;51.444;6.484;2023-02-11T11:36:09;63.37;;;26.63;;
3843;SDS011;1937;51.444;6.484;2023-02-11T11:38:42;70.70;;;26.67;;
3843;SDS011;1937;51.444;6.484;2023-02-11T11:41:23;55.90;;;26.00;;
3843;SDS011;1937;51.444;6.484;2023-02-11T11:43:57;57.80;;;26.80;;
3843;SDS011;1937;51.444;6.484;2023-02-11T11:46:27;57.83;;;27.17;;
3843;SDS011;1937;51.444;6.484;2023-02-11T11:49:05;64.90;;;25.30;;
3843;SDS011;1937;51.444;6.484;2023-02-11T11:51:39;56.57;;;23.50;;
3843;SDS011;1937;51.444;6.484;2023-02-11T11:54:10;55.03;;;24.63;;
3843;SDS011;1937;51.444;6.484;2023-02-11T11:56:41;65.70;;;28.37;;
3843;SDS011;1937;51.444;6.484;2023-02-11T11:59:16;63.93;;;27.73;;
3843;SDS011;1937;51.444;6.484;2023-02-11T12:01:45;51.20;;;26.03;;
3843;SDS011;1937;51.444;6.484;2023-02-11T12:07:18;59.27;;;25.80;;
3843;SDS011;1937;51.444;6.484;2023-02-11T12:10:02;65.53;;;28.27;;
3843;SDS011;1937;51.444;6.484;2023-02-11T12:12:51;63.90;;;27.47;;
3843;SDS011;1937;51.444;6.484;2023-02-11T12:15:28;66.90;;;25.77;;
3843;SDS011;1937;51.444;6.484;2023-02-11T12:21:04;58.27;;;26.23;;
3843;SDS011;1937;51.444;6.484;2023-02-11T12:23:46;65.57;;;26.40;;
3843;SDS011;1937;51.444;6.484;2023-02-11T12:26:22;60.07;;;25.47;;
3843;SDS011;1937;51.444;6.484;2023-02-11T12:28:59;57.83;;;24.03;;
3843;SDS011;1937;51.444;6.484;2023-02-11T12:31:37;77.77;;;36.73;;
3843;SDS011;1937;51.444;6.484;2023-02-11T12:34:17;62.90;;;26.40;;
3843;SDS011;1937;51.444;6.484;2023-02-11T12:36:56;60.63;;;27.73;;
3843;SDS011;1937;51.444;6.484;2023-02-11T12:39:33;64.13;;;26.90;;
3843;SDS011;1937;51.444;6.484;2023-02-11T12:42:18;52.93;;;24.97;;
3843;SDS011;1937;51.444;6.484;2023-02-11T12:45:19;51.30;;;24.50;;
3843;SDS011;1937;51.444;6.484;2023-02-11T12:47:57;55.03;;;24.60;;
3843;SDS011;1937;51.444;6.484;2023-02-11T12:50:34;58.97;;;25.00;;
3843;SDS011;1937;51.444;6.484;2023-02-11T12:53:16;57.00;;;24.30;;
3843;SDS011;1937;51.444;6.484;2023-02-11T12:55:57;55.13;;;27.30;;
3843;SDS011;1937;51.444;6.484;2023-02-11T12:58:30;63.30;;;26.00;;
3843;SDS011;1937;51.444;6.484;2023-02-11T13:01:02;52.20;;;24.40;;
3843;SDS011;1937;51.444;6.484;2023-02-11T13:03:34;60.33;;;25.37;;
3843;SDS011;1937;51.444;6.484;2023-02-11T13:06:06;51.60;;;24.70;;
3843;SDS011;1937;51.444;6.484;2023-02-11T13:08:35;55.50;;;26.20;;
3843;SDS011;1937;51.444;6.484;2023-02-11T13:11:06;59.10;;;25.10;;
3843;SDS011;1937;51.444;6.484;2023-02-11T13:13:38;60.03;;;27.20;;
3843;SDS011;1937;51.444;6.484;2023-02-11T13:16:18;66.27;;;25.13;;
3843;SDS011;1937;51.444;6.484;2023-02-11T13:18:54;55.73;;;25.93;;
3843;SDS011;1937;51.444;6.484;2023-02-11T13:21:32;64.90;;;27.83;;
3843;SDS011;1937;51.444;6.484;2023-02-11T13:24:12;60.17;;;28.77;;
3843;SDS011;1937;51.444;6.484;2023-02-11T13:26:46;59.40;;;25.63;;
3843;SDS011;1937;51.444;6.484;2023-02-11T13:29:25;59.90;;;26.47;;
3843;SDS011;1937;51.444;6.484;2023-02-11T13:32:05;55.87;;;25.03;;
3843;SDS011;1937;51.444;6.484;2023-02-11T13:37:23;62.57;;;24.00;;
3843;SDS011;1937;51.444;6.484;2023-02-11T13:39:59;69.57;;;26.20;;
3843;SDS011;1937;51.444;6.484;2023-02-11T13:42:27;51.63;;;24.40;;
3843;SDS011;1937;51.444;6.484;2023-02-11T13:44:55;55.77;;;26.90;;
3843;SDS011;1937;51.444;6.484;2023-02-11T13:47:27;47.60;;;23.73;;
3843;SDS011;1937;51.444;6.484;2023-02-11T13:49:56;52.37;;;25.97;;
3843;SDS011;1937;51.444;6.484;2023-02-11T13:52:26;50.00;;;23.63;;
3843;SDS011;1937;51.444;6.484;2023-02-11T13:54:55;51.13;;;23.93;;
3843;SDS011;1937;51.444;6.484;2023-02-11T13:57:32;49.17;;;25.80;;
3843;SDS011;1937;51.444;6.484;2023-02-11T14:00:03;50.20;;;23.57;;
3843;SDS011;1937;51.444;6.484;2023-02-11T14:06:10;44.30;;;21.13;;
3843;SDS011;1937;51.444;6.484;2023-02-11T14:09:04;48.93;;;22.73;;
3843;SDS011;1937;51.444;6.484;2023-02-11T14:11:45;50.40;;;23.37;;
3843;SDS011;1937;51.444;6.484;2023-02-11T14:14:18;52.33;;;24.80;;
3843;SDS011;1937;51.444;6.484;2023-02-11T14:19:57;47.37;;;21.20;;
3843;SDS011;1937;51.444;6.484;2023-02-11T14:22:25;47.50;;;20.30;;
3843;SDS011;1937;51.444;6.484;2023-02-11T14:24:58;50.87;;;22.73;;
3843;SDS011;1937;51.444;6.484;2023-02-11T14:27:29;56.73;;;22.20;;
3843;SDS011;1937;51.444;6.484;2023-02-11T14:30:09;47.17;;;22.40;;
3843;SDS011;1937;51.444;6.484;2023-02-11T14:32:49;42.60;;;19.43;;
3843;SDS011;1937;51.444;6.484;2023-02-11T14:35:27;41.37;;;21.67;;
3843;SDS011;1937;51.444;6.484;2023-02-11T14:38:02;52.07;;;21.20;;
3843;SDS011;1937;51.444;6.484;2023-02-11T14:40:38;53.73;;;22.00;;
3843;SDS011;1937;51.444;6.484;2023-02-11T14:43:12;50.93;;;21.90;;
3843;SDS011;1937;51.444;6.484;2023-02-11T14:45:44;46.97;;;21.83;;
3843;SDS011;1937;51.444;6.484;2023-02-11T14:48:15;50.90;;;23.83;;
3843;SDS011;1937;51.444;6.484;2023-02-11T14:50:46;52.07;;;23.40;;
3843;SDS011;1937;51.444;6.484;2023-02-11T14:53:16;52.73;;;23.00;;
3843;SDS011;1937;51.444;6.484;2023-02-11T14:55:45;52.73;;;23.70;;
3843;SDS011;1937;51.444;6.484;2023-02-11T14:58:15;41.00;;;23.07;;
3843;SDS011;1937;51.444;6.484;2023-02-11T15:00:50;57.40;;;30.10;;
3843;SDS011;1937;51.444;6.484;2023-02-11T15:03:25;51.97;;;21.37;;
3843;SDS011;1937;51.444;6.484;2023-02-11T15:05:59;40.13;;;18.47;;
3843;SDS011;1937;51.444;6.484;2023-02-11T15:08:28;48.10;;;22.27;;
3843;SDS011;1937;51.444;6.484;2023-02-11T15:10:55;50.10;;;21.47;;
3843;SDS011;1937;51.444;6.484;2023-02-11T15:13:24;43.97;;;21.23;;
3843;SDS011;1937;51.444;6.484;2023-02-11T15:15:56;52.37;;;23.23;;
3843;SDS011;1937;51.444;6.484;2023-02-11T15:18:28;49.17;;;22.73;;
3843;SDS011;1937;51.444;6.484;2023-02-11T15:21:00;41.70;;;22.03;;
3843;SDS011;1937;51.444;6.484;2023-02-11T15:23:27;40.60;;;22.30;;
3843;SDS011;1937;51.444;6.484;2023-02-11T15:25:55;46.03;;;20.83;;
3843;SDS011;1937;51.444;6.484;2023-02-11T15:28:22;48.77;;;21.60;;
3843;SDS011;1937;51.444;6.484;2023-02-11T15:30:58;43.57;;;21.40;;
3843;SDS011;1937;51.444;6.484;2023-02-11T15:33:25;60.53;;;26.03;;
3843;SDS011;1937;51.444;6.484;2023-02-11T15:35:54;65.80;;;26.57;;
3843;SDS011;1937;51.444;6.484;2023-02-11T15:38:22;45.40;;;23.60;;
3843;SDS011;1937;51.444;6.484;2023-02-11T15:40:53;44.70;;;22.70;;